Time;durP1;ratioP1;P1;durP2;ratioP2;P2;SDS_P1;SDS_P2;PMS_P1;PMS_P2;Temp;Humidity;BMP_temperature;BMP_pressure;BME280_temperature;BME280_humidity;BME280_pressure;Samples;Min_cycle;Max_cycle;Signal;HPM_P1;HPM_P2
2021/01/31 00:00:32;;;;;;;14.80;8.98;;;;;;;;;;5081293;28;20268;-54
2021/01/31 00:02:59;;;;;;;11.77;7.75;;;;;;;;;;5081329;28;20194;-55
2021/01/31 00:05:25;;;;;;;12.88;8.30;;;;;;;;;;5084927;28;20199;-53
2021/01/31 00:07:52;;;;;;;13.40;7.63;;;;;;;;;;5085351;28;20158;-53
2021/01/31 00:10:19;;;;;;;11.25;7.35;;;;;;;;;;5085623;28;20203;-52
2021/01/31 00:12:46;;;;;;;11.70;8.02;;;;;;;;;;5085600;28;20173;-54
2021/01/31 00:15:14;;;;;;;16.30;8.90;;;;;;;;;;5083988;28;20224;-50
2021/01/31 00:17:40;;;;;;;12.98;8.07;;;;;;;;;;5084913;28;20243;-52
2021/01/31 00:20:07;;;;;;;11.23;8.10;;;;;;;;;;5084627;28;20201;-54
2021/01/31 00:22:33;;;;;;;11.10;7.95;;;;;;;;;;5085926;28;20460;-53
2021/01/31 00:24:58;;;;;;;10.85;7.80;;;;;;;;;;5104650;28;20229;-53
2021/01/31 00:27:25;;;;;;;11.07;8.30;;;;;;;;;;5104730;28;20173;-52
2021/01/31 00:29:52;;;;;;;10.98;7.25;;;;;;;;;;5106215;28;20487;-53
2021/01/31 00:32:21;;;;;;;12.38;7.65;;;;;;;;;;5105768;28;20181;-52
2021/01/31 00:34:47;;;;;;;11.25;7.72;;;;;;;;;;5106297;28;20173;-53
2021/01/31 00:37:14;;;;;;;11.83;8.47;;;;;;;;;;5104897;28;20193;-54
2021/01/31 00:39:40;;;;;;;10.60;7.43;;;;;;;;;;5100018;28;20995;-54
2021/01/31 00:42:06;;;;;;;13.50;8.50;;;;;;;;;;5084387;28;20248;-54
2021/01/31 00:44:32;;;;;;;12.30;8.00;;;;;;;;;;5084320;28;20404;-53
2021/01/31 00:46:58;;;;;;;9.50;7.03;;;;;;;;;;5084397;28;20418;-53
2021/01/31 00:49:24;;;;;;;12.88;8.15;;;;;;;;;;5084576;28;20416;-54
2021/01/31 00:51:50;;;;;;;10.80;7.95;;;;;;;;;;5084487;28;20169;-53
2021/01/31 00:54:16;;;;;;;13.53;8.37;;;;;;;;;;5084394;28;20177;-53
2021/01/31 00:56:42;;;;;;;10.63;6.80;;;;;;;;;;5084612;28;20408;-52
2021/01/31 00:59:08;;;;;;;11.90;7.90;;;;;;;;;;5085064;28;20197;-54
2021/01/31 01:01:34;;;;;;;12.10;8.37;;;;;;;;;;5084060;28;20492;-55
2021/01/31 01:04:00;;;;;;;11.37;7.00;;;;;;;;;;5084987;28;20434;-53
2021/01/31 01:06:26;;;;;;;9.80;6.97;;;;;;;;;;5084926;28;20404;-53
2021/01/31 01:08:52;;;;;;;14.03;8.50;;;;;;;;;;5084872;28;20424;-53
2021/01/31 01:11:18;;;;;;;11.50;8.13;;;;;;;;;;5086575;28;20427;-52
2021/01/31 01:13:44;;;;;;;10.13;8.20;;;;;;;;;;5085231;28;20400;-52
2021/01/31 01:16:10;;;;;;;9.67;7.40;;;;;;;;;;5084553;28;20433;-52
2021/01/31 01:18:38;;;;;;;12.10;7.90;;;;;;;;;;5084322;28;20400;-53
2021/01/31 01:21:04;;;;;;;13.68;8.13;;;;;;;;;;5084331;28;20398;-53
2021/01/31 01:23:30;;;;;;;9.60;7.20;;;;;;;;;;5084918;28;20207;-53
2021/01/31 01:25:56;;;;;;;8.65;6.90;;;;;;;;;;5084650;28;20415;-53
2021/01/31 01:28:22;;;;;;;13.20;8.20;;;;;;;;;;5085814;28;20169;-51
2021/01/31 01:30:49;;;;;;;11.25;8.60;;;;;;;;;;5085728;28;20448;-53
2021/01/31 01:33:15;;;;;;;11.60;7.50;;;;;;;;;;5085493;28;20168;-53
2021/01/31 01:35:41;;;;;;;11.30;7.38;;;;;;;;;;5085869;28;20170;-54
2021/01/31 01:38:07;;;;;;;12.70;8.57;;;;;;;;;;5085798;28;20181;-53
2021/01/31 01:40:35;;;;;;;14.03;7.20;;;;;;;;;;5086636;28;20842;-54
2021/01/31 01:43:01;;;;;;;10.10;7.47;;;;;;;;;;5085170;28;20831;-52
2021/01/31 01:45:28;;;;;;;14.57;8.65;;;;;;;;;;5085762;28;20190;-55
2021/01/31 01:47:56;;;;;;;8.68;6.88;;;;;;;;;;5085565;28;20222;-55
2021/01/31 01:50:34;;;;;;;12.20;7.97;;;;;;;;;;5085979;28;20680;-52
2021/01/31 01:53:00;;;;;;;13.80;8.27;;;;;;;;;;5086128;28;20166;-53
2021/01/31 01:55:29;;;;;;;11.65;7.50;;;;;;;;;;5084692;28;20181;-55
2021/01/31 01:57:58;;;;;;;11.70;7.10;;;;;;;;;;5086248;28;20165;-53
2021/01/31 02:00:24;;;;;;;13.18;8.50;;;;;;;;;;5086572;28;20711;-52
2021/01/31 02:02:53;;;;;;;11.38;7.57;;;;;;;;;;5084784;28;20337;-52
2021/01/31 02:05:19;;;;;;;11.35;7.43;;;;;;;;;;5085401;28;20187;-54
2021/01/31 02:07:45;;;;;;;11.93;8.05;;;;;;;;;;5084877;28;20757;-53
2021/01/31 02:10:12;;;;;;;15.13;8.15;;;;;;;;;;5090952;28;20195;-52
2021/01/31 02:12:39;;;;;;;8.90;7.22;;;;;;;;;;5107812;28;20171;-52
2021/01/31 02:15:06;;;;;;;10.15;7.68;;;;;;;;;;5104647;28;20446;-55
2021/01/31 02:17:44;;;;;;;11.38;7.90;;;;;;;;;;5103848;28;20203;-52
2021/01/31 02:20:29;;;;;;;9.98;6.93;;;;;;;;;;5104111;28;20195;-52
2021/01/31 02:23:01;;;;;;;15.27;7.95;;;;;;;;;;5103709;28;20702;-55
2021/01/31 02:25:27;;;;;;;12.45;8.25;;;;;;;;;;5102646;28;20181;-54
2021/01/31 02:28:05;;;;;;;10.93;8.13;;;;;;;;;;5102590;28;20243;-53
2021/01/31 02:30:50;;;;;;;13.63;7.47;;;;;;;;;;5102745;28;20427;-54
2021/01/31 02:33:34;;;;;;;9.70;7.30;;;;;;;;;;5103524;28;20176;-52
2021/01/31 02:36:03;;;;;;;8.55;6.35;;;;;;;;;;5101790;28;20202;-53
2021/01/31 02:38:32;;;;;;;15.93;8.13;;;;;;;;;;5103181;28;20206;-54
2021/01/31 02:41:04;;;;;;;12.13;8.23;;;;;;;;;;5093556;28;20216;-55
2021/01/31 02:43:40;;;;;;;10.25;7.60;;;;;;;;;;5083314;28;20199;-53
2021/01/31 02:46:24;;;;;;;15.52;7.93;;;;;;;;;;5083696;28;20170;-55
2021/01/31 02:48:58;;;;;;;11.77;7.57;;;;;;;;;;5082804;28;20195;-53
2021/01/31 02:51:30;;;;;;;14.88;7.38;;;;;;;;;;5083087;28;20205;-52
2021/01/31 02:54:07;;;;;;;12.32;7.32;;;;;;;;;;5083072;28;20174;-53
2021/01/31 02:56:33;;;;;;;13.25;8.02;;;;;;;;;;5082768;28;20164;-55
2021/01/31 02:59:03;;;;;;;12.07;7.87;;;;;;;;;;5082995;28;20659;-55
2021/01/31 03:01:34;;;;;;;11.65;7.85;;;;;;;;;;5083565;28;20393;-53
2021/01/31 03:04:00;;;;;;;19.45;8.10;;;;;;;;;;5082712;28;20248;-52
2021/01/31 03:06:27;;;;;;;17.03;8.33;;;;;;;;;;5083178;28;20246;-54
2021/01/31 03:08:58;;;;;;;13.05;8.10;;;;;;;;;;5082367;28;20498;-55
2021/01/31 03:11:24;;;;;;;11.00;7.78;;;;;;;;;;5099588;28;20214;-53
2021/01/31 03:13:57;;;;;;;12.27;7.73;;;;;;;;;;5103199;28;20173;-54
2021/01/31 03:16:29;;;;;;;11.50;7.32;;;;;;;;;;5103017;28;20425;-53
2021/01/31 03:18:58;;;;;;;15.52;7.80;;;;;;;;;;5102571;28;20198;-52
2021/01/31 03:21:29;;;;;;;11.50;8.45;;;;;;;;;;5103581;28;20163;-54
2021/01/31 03:24:14;;;;;;;14.93;9.57;;;;;;;;;;5103667;28;20173;-52
2021/01/31 03:26:42;;;;;;;13.95;8.10;;;;;;;;;;5103262;28;20172;-52
2021/01/31 03:29:08;;;;;;;12.80;8.30;;;;;;;;;;5103071;28;20177;-54
2021/01/31 03:31:37;;;;;;;12.30;8.27;;;;;;;;;;5103102;28;20162;-54
2021/01/31 03:34:08;;;;;;;14.95;8.40;;;;;;;;;;5102998;28;20540;-52
2021/01/31 03:36:34;;;;;;;15.05;9.63;;;;;;;;;;5102430;28;20180;-52
2021/01/31 03:39:01;;;;;;;11.23;7.75;;;;;;;;;;5103231;28;20189;-54
2021/01/31 03:41:28;;;;;;;13.82;8.40;;;;;;;;;;5087181;28;20241;-53
2021/01/31 03:43:55;;;;;;;12.40;8.15;;;;;;;;;;5083231;28;20177;-55
2021/01/31 03:46:24;;;;;;;15.95;8.20;;;;;;;;;;5082547;28;20170;-54
2021/01/31 03:48:54;;;;;;;14.68;8.73;;;;;;;;;;5082278;28;20206;-53
2021/01/31 03:51:20;;;;;;;10.73;7.50;;;;;;;;;;5082846;28;20159;-52
2021/01/31 03:53:47;;;;;;;11.27;8.50;;;;;;;;;;5083175;28;20173;-54
2021/01/31 03:56:15;;;;;;;13.35;10.05;;;;;;;;;;5082789;28;20172;-52
2021/01/31 03:58:43;;;;;;;19.30;9.55;;;;;;;;;;5082714;28;20173;-53
2021/01/31 04:01:11;;;;;;;17.42;8.40;;;;;;;;;;5083690;28;20178;-53
2021/01/31 04:03:39;;;;;;;12.38;8.40;;;;;;;;;;5083258;28;20269;-54
2021/01/31 04:06:17;;;;;;;13.95;8.95;;;;;;;;;;5082813;28;20171;-53
2021/01/31 04:08:45;;;;;;;14.95;9.13;;;;;;;;;;5082025;28;20177;-54
2021/01/31 04:11:11;;;;;;;11.95;7.55;;;;;;;;;;5081028;28;20690;-53
2021/01/31 04:13:37;;;;;;;12.38;8.25;;;;;;;;;;5092517;28;20213;-53
2021/01/31 04:16:06;;;;;;;14.05;9.25;;;;;;;;;;5099642;28;20194;-52
2021/01/31 04:18:32;;;;;;;13.15;8.48;;;;;;;;;;5098880;28;20185;-52
2021/01/31 04:20:59;;;;;;;13.57;8.73;;;;;;;;;;5098903;28;20166;-53
2021/01/31 04:23:25;;;;;;;14.25;9.27;;;;;;;;;;5098382;28;20475;-53
2021/01/31 04:25:51;;;;;;;16.20;9.13;;;;;;;;;;5098572;28;20576;-54
2021/01/31 04:28:25;;;;;;;13.82;9.02;;;;;;;;;;5098886;28;20407;-53
2021/01/31 04:30:55;;;;;;;11.20;8.45;;;;;;;;;;5098524;28;20186;-53
2021/01/31 04:33:21;;;;;;;13.63;8.75;;;;;;;;;;5097844;28;20158;-53
2021/01/31 04:35:47;;;;;;;14.70;8.97;;;;;;;;;;5098017;28;20201;-52
2021/01/31 04:38:13;;;;;;;12.85;7.95;;;;;;;;;;5098250;28;20408;-53
2021/01/31 04:40:39;;;;;;;13.52;8.50;;;;;;;;;;5097350;28;20182;-51
2021/01/31 04:43:10;;;;;;;14.45;8.77;;;;;;;;;;5080958;28;20297;-51
2021/01/31 04:45:37;;;;;;;14.43;9.48;;;;;;;;;;5081418;28;20293;-53
2021/01/31 04:48:08;;;;;;;14.82;8.18;;;;;;;;;;5081343;28;20606;-51
2021/01/31 04:50:43;;;;;;;13.90;8.35;;;;;;;;;;5085571;28;20190;-53
2021/01/31 04:53:09;;;;;;;13.43;9.27;;;;;;;;;;5087937;28;20166;-51
2021/01/31 04:55:53;;;;;;;18.60;9.87;;;;;;;;;;5087812;28;20185;-52
2021/01/31 04:58:31;;;;;;;17.50;9.70;;;;;;;;;;5087426;28;20401;-52
2021/01/31 05:01:00;;;;;;;16.30;9.63;;;;;;;;;;5087601;28;20235;-52
2021/01/31 05:03:28;;;;;;;17.25;9.57;;;;;;;;;;5088457;28;20211;-51
2021/01/31 05:05:57;;;;;;;14.68;8.65;;;;;;;;;;5087463;28;20213;-51
2021/01/31 05:08:24;;;;;;;13.80;8.25;;;;;;;;;;5087257;28;20162;-53
2021/01/31 05:10:51;;;;;;;16.77;9.48;;;;;;;;;;5087239;28;20261;-51
2021/01/31 05:13:34;;;;;;;15.40;9.68;;;;;;;;;;5085981;28;20637;-53
2021/01/31 05:16:03;;;;;;;12.30;7.25;;;;;;;;;;5086026;28;20201;-52
2021/01/31 05:18:30;;;;;;;14.32;9.73;;;;;;;;;;5086752;28;20166;-52
2021/01/31 05:20:58;;;;;;;18.55;9.95;;;;;;;;;;5087161;28;20171;-53
2021/01/31 05:23:25;;;;;;;20.45;9.48;;;;;;;;;;5086272;28;20292;-50
2021/01/31 05:25:51;;;;;;;18.25;10.27;;;;;;;;;;5086167;28;20206;-54
2021/01/31 05:28:17;;;;;;;16.52;10.15;;;;;;;;;;5086212;28;20182;-53
2021/01/31 05:30:44;;;;;;;12.73;9.48;;;;;;;;;;5086918;28;20265;-53
2021/01/31 05:33:14;;;;;;;15.25;9.25;;;;;;;;;;5087286;28;20178;-53
2021/01/31 05:35:45;;;;;;;15.27;9.65;;;;;;;;;;5086556;28;20217;-50
2021/01/31 05:38:12;;;;;;;14.45;10.05;;;;;;;;;;5086888;28;20171;-50
2021/01/31 05:40:40;;;;;;;16.17;10.23;;;;;;;;;;5086180;28;20240;-52
2021/01/31 05:43:07;;;;;;;15.13;9.20;;;;;;;;;;5086622;28;20197;-51
2021/01/31 05:45:35;;;;;;;16.95;9.73;;;;;;;;;;5086371;28;20166;-50
2021/01/31 05:48:02;;;;;;;17.15;9.20;;;;;;;;;;5085957;28;20306;-52
2021/01/31 05:50:36;;;;;;;14.60;8.75;;;;;;;;;;5086026;28;20213;-52
2021/01/31 05:53:21;;;;;;;15.88;8.35;;;;;;;;;;5086540;28;20209;-52
2021/01/31 05:55:47;;;;;;;20.17;10.35;;;;;;;;;;5086346;28;20184;-49
2021/01/31 05:58:13;;;;;;;13.98;9.80;;;;;;;;;;5087922;28;20539;-52
2021/01/31 06:00:39;;;;;;;17.13;8.97;;;;;;;;;;5107641;28;20195;-52
2021/01/31 06:03:07;;;;;;;17.85;10.63;;;;;;;;;;5106508;28;20448;-52
2021/01/31 06:05:34;;;;;;;14.45;8.02;;;;;;;;;;5108085;28;20177;-51
2021/01/31 06:08:10;;;;;;;16.98;9.18;;;;;;;;;;5108032;28;20192;-51
2021/01/31 06:10:38;;;;;;;16.98;10.13;;;;;;;;;;5107687;28;20177;-52
2021/01/31 06:13:12;;;;;;;17.13;8.75;;;;;;;;;;5106719;28;20181;-51
2021/01/31 06:15:38;;;;;;;15.70;10.18;;;;;;;;;;5107383;28;20166;-50
2021/01/31 06:18:13;;;;;;;16.43;9.40;;;;;;;;;;5107542;28;20236;-52
2021/01/31 06:20:41;;;;;;;19.75;9.52;;;;;;;;;;5107020;28;20501;-51
2021/01/31 06:23:18;;;;;;;18.33;9.18;;;;;;;;;;5107534;28;20221;-51
2021/01/31 06:25:44;;;;;;;14.10;8.82;;;;;;;;;;5103758;28;20209;-51
2021/01/31 06:28:10;;;;;;;14.90;9.05;;;;;;;;;;5087163;28;20168;-51
2021/01/31 06:30:38;;;;;;;14.53;8.63;;;;;;;;;;5086483;28;20190;-52
2021/01/31 06:33:05;;;;;;;14.77;9.43;;;;;;;;;;5085720;28;20421;-51
2021/01/31 06:35:30;;;;;;;22.20;11.38;;;;;;;;;;5086840;28;20193;-50
2021/01/31 06:38:03;;;;;;;18.33;9.43;;;;;;;;;;5086219;28;20174;-51
2021/01/31 06:40:52;;;;;;;13.43;9.80;;;;;;;;;;5087275;28;20493;-52
2021/01/31 06:43:18;;;;;;;15.90;9.73;;;;;;;;;;5086981;28;20198;-52
2021/01/31 06:45:44;;;;;;;15.53;8.80;;;;;;;;;;5087067;28;20184;-51
2021/01/31 06:48:19;;;;;;;18.97;9.73;;;;;;;;;;5087004;28;20483;-52
2021/01/31 06:51:05;;;;;;;14.57;8.63;;;;;;;;;;5087012;28;20495;-53
2021/01/31 06:53:31;;;;;;;17.45;9.70;;;;;;;;;;5086236;28;20182;-52
2021/01/31 06:55:57;;;;;;;14.50;8.67;;;;;;;;;;5085050;28;20196;-51
2021/01/31 06:58:32;;;;;;;16.63;9.83;;;;;;;;;;5086740;28;20411;-51
2021/01/31 07:01:06;;;;;;;15.75;9.70;;;;;;;;;;5086480;28;20411;-51
2021/01/31 07:03:38;;;;;;;16.40;9.68;;;;;;;;;;5085986;28;20198;-51
2021/01/31 07:06:30;;;;;;;19.02;10.80;;;;;;;;;;5085881;28;20178;-52
2021/01/31 07:09:07;;;;;;;17.20;10.00;;;;;;;;;;5054543;28;20202;-52
2021/01/31 07:11:38;;;;;;;19.60;10.85;;;;;;;;;;5086195;28;20166;-52
2021/01/31 07:14:04;;;;;;;16.95;9.95;;;;;;;;;;5085145;28;20166;-51
2021/01/31 07:16:33;;;;;;;19.03;10.50;;;;;;;;;;5085589;28;20835;-51
2021/01/31 07:19:16;;;;;;;17.23;10.05;;;;;;;;;;5085605;28;20927;-52
2021/01/31 07:22:02;;;;;;;15.85;10.45;;;;;;;;;;5085541;28;20166;-54
2021/01/31 07:24:32;;;;;;;15.93;9.93;;;;;;;;;;5085279;28;20749;-52
2021/01/31 07:27:00;;;;;;;16.40;10.07;;;;;;;;;;5084969;28;20206;-52
2021/01/31 07:29:30;;;;;;;18.67;10.20;;;;;;;;;;5083319;28;20517;-53
2021/01/31 07:31:56;;;;;;;16.85;10.75;;;;;;;;;;5084546;28;20177;-54
2021/01/31 07:34:40;;;;;;;20.25;10.55;;;;;;;;;;5085331;28;20170;-53
2021/01/31 07:37:06;;;;;;;18.13;11.68;;;;;;;;;;5084371;28;20605;-51
2021/01/31 07:39:38;;;;;;;15.32;9.52;;;;;;;;;;5084060;28;20656;-54
2021/01/31 07:42:05;;;;;;;19.38;10.65;;;;;;;;;;5083106;28;20210;-51
2021/01/31 07:44:33;;;;;;;21.42;10.52;;;;;;;;;;5082979;28;20586;-52
2021/01/31 07:47:00;;;;;;;20.58;10.68;;;;;;;;;;5083972;28;20185;-52
2021/01/31 07:49:26;;;;;;;27.63;11.15;;;;;;;;;;5083849;28;20201;-51
2021/01/31 07:51:54;;;;;;;19.05;10.93;;;;;;;;;;5084668;28;20220;-51
2021/01/31 07:54:26;;;;;;;16.58;9.98;;;;;;;;;;5085431;28;20174;-53
2021/01/31 07:56:52;;;;;;;18.50;10.63;;;;;;;;;;5103846;28;20189;-49
2021/01/31 07:59:29;;;;;;;15.27;9.82;;;;;;;;;;5104705;28;20656;-51
2021/01/31 08:01:55;;;;;;;15.85;9.90;;;;;;;;;;5103879;28;20273;-53
2021/01/31 08:04:48;;;;;;;21.27;10.63;;;;;;;;;;5103937;28;20169;-51
2021/01/31 08:07:34;;;;;;;17.30;11.27;;;;;;;;;;5100468;28;20178;-51
2021/01/31 08:10:00;;;;;;;20.25;11.27;;;;;;;;;;5101939;28;20201;-51
2021/01/31 08:12:49;;;;;;;24.33;11.82;;;;;;;;;;5100596;28;20266;-51
2021/01/31 08:15:33;;;;;;;17.00;9.55;;;;;;;;;;5098983;28;20161;-51
2021/01/31 08:17:59;;;;;;;15.65;10.18;;;;;;;;;;5100016;28;20210;-52
2021/01/31 08:20:28;;;;;;;15.13;9.27;;;;;;;;;;5099103;28;20178;-53
2021/01/31 08:22:58;;;;;;;15.55;9.27;;;;;;;;;;5098459;28;20458;-52
2021/01/31 08:25:28;;;;;;;12.55;8.40;;;;;;;;;;5094814;28;20186;-51
2021/01/31 08:28:17;;;;;;;13.02;9.23;;;;;;;;;;5086364;28;20174;-51
2021/01/31 08:31:03;;;;;;;14.50;8.63;;;;;;;;;;5082780;28;20210;-51
2021/01/31 08:33:42;;;;;;;14.57;9.20;;;;;;;;;;5087565;28;20178;-52
2021/01/31 08:36:20;;;;;;;14.95;8.65;;;;;;;;;;5088366;28;20177;-52
2021/01/31 08:38:49;;;;;;;13.63;9.35;;;;;;;;;;5087382;28;20199;-52
2021/01/31 08:41:29;;;;;;;14.13;9.00;;;;;;;;;;5087078;28;20166;-53
2021/01/31 08:44:00;;;;;;;14.18;9.50;;;;;;;;;;5087381;28;20244;-53
2021/01/31 08:46:29;;;;;;;13.90;9.43;;;;;;;;;;5082718;28;20171;-52
2021/01/31 08:48:56;;;;;;;12.73;9.15;;;;;;;;;;5082422;28;20213;-53
2021/01/31 08:51:36;;;;;;;10.98;7.80;;;;;;;;;;5084272;28;20198;-52
2021/01/31 08:54:08;;;;;;;15.75;9.48;;;;;;;;;;5086692;28;20170;-53
2021/01/31 08:56:36;;;;;;;12.68;8.55;;;;;;;;;;5087124;28;20257;-52
2021/01/31 08:59:03;;;;;;;12.10;8.75;;;;;;;;;;5092355;28;20201;-53
2021/01/31 09:01:36;;;;;;;12.57;9.40;;;;;;;;;;5107781;28;20162;-53
2021/01/31 09:04:02;;;;;;;10.93;8.13;;;;;;;;;;5106017;28;20212;-52
2021/01/31 09:06:34;;;;;;;13.70;9.87;;;;;;;;;;5106029;28;20526;-54
2021/01/31 09:09:00;;;;;;;12.82;9.65;;;;;;;;;;5105816;28;20753;-53
2021/01/31 09:11:26;;;;;;;12.80;8.70;;;;;;;;;;5107982;28;20193;-53
2021/01/31 09:13:52;;;;;;;17.13;10.17;;;;;;;;;;5107557;28;20408;-53
2021/01/31 09:16:18;;;;;;;14.20;8.97;;;;;;;;;;5106169;28;20427;-53
2021/01/31 09:18:44;;;;;;;13.50;9.20;;;;;;;;;;5107160;28;20404;-51
2021/01/31 09:21:20;;;;;;;13.07;8.87;;;;;;;;;;5107260;28;20471;-54
2021/01/31 09:23:46;;;;;;;15.63;8.70;;;;;;;;;;5107714;28;20456;-53
2021/01/31 09:26:12;;;;;;;12.97;9.33;;;;;;;;;;5101674;28;20506;-53
2021/01/31 09:28:42;;;;;;;12.83;8.73;;;;;;;;;;5084162;28;20411;-54
2021/01/31 09:31:09;;;;;;;15.57;10.77;;;;;;;;;;5082720;28;20399;-52
2021/01/31 09:33:40;;;;;;;14.10;9.97;;;;;;;;;;5082342;28;20458;-54
2021/01/31 09:36:26;;;;;;;18.67;11.57;;;;;;;;;;5080536;28;20820;-54
2021/01/31 09:38:53;;;;;;;11.50;8.70;;;;;;;;;;5078685;28;20451;-54
2021/01/31 09:41:20;;;;;;;10.90;8.50;;;;;;;;;;5081310;28;20412;-56
2021/01/31 09:43:47;;;;;;;8.87;7.50;;;;;;;;;;5082564;28;20506;-52
2021/01/31 09:46:17;;;;;;;10.70;8.23;;;;;;;;;;5083544;28;20454;-52
2021/01/31 09:48:44;;;;;;;11.00;8.30;;;;;;;;;;5081010;28;20473;-51
2021/01/31 09:51:22;;;;;;;10.40;8.37;;;;;;;;;;5072637;28;20453;-56
2021/01/31 09:53:48;;;;;;;14.20;9.47;;;;;;;;;;5072518;28;20434;-56
2021/01/31 09:56:33;;;;;;;8.43;7.43;;;;;;;;;;5072279;28;20436;-55
2021/01/31 09:58:59;;;;;;;10.27;8.00;;;;;;;;;;5092160;28;20437;-55
2021/01/31 10:01:26;;;;;;;8.67;7.67;;;;;;;;;;5093073;28;20902;-53
2021/01/31 10:04:15;;;;;;;12.33;8.50;;;;;;;;;;5092329;28;20451;-55
2021/01/31 10:06:45;;;;;;;8.90;8.00;;;;;;;;;;5092200;28;20399;-52
2021/01/31 10:09:11;;;;;;;11.23;9.33;;;;;;;;;;5092083;28;20917;-54
2021/01/31 10:11:39;;;;;;;13.37;8.90;;;;;;;;;;5092308;28;20460;-55
2021/01/31 10:14:28;;;;;;;11.00;9.33;;;;;;;;;;5092149;28;20399;-53
2021/01/31 10:17:11;;;;;;;11.00;9.07;;;;;;;;;;5081381;28;20451;-51
2021/01/31 10:19:37;;;;;;;10.00;7.83;;;;;;;;;;5092048;28;20426;-52
2021/01/31 10:22:09;;;;;;;8.87;7.63;;;;;;;;;;5092063;28;20459;-53
2021/01/31 10:24:35;;;;;;;9.20;7.80;;;;;;;;;;5071854;28;20424;-51
2021/01/31 10:27:20;;;;;;;11.40;8.87;;;;;;;;;;5071278;28;20396;-51
2021/01/31 10:29:46;;;;;;;9.80;8.37;;;;;;;;;;5071467;28;20745;-53
2021/01/31 10:32:23;;;;;;;8.33;7.30;;;;;;;;;;5071486;28;20416;-52
2021/01/31 10:34:49;;;;;;;11.17;8.87;;;;;;;;;;5071559;28;20396;-52
2021/01/31 10:37:34;;;;;;;10.83;8.50;;;;;;;;;;5071225;28;20396;-53
2021/01/31 10:40:00;;;;;;;11.77;8.27;;;;;;;;;;5071508;28;20422;-50
2021/01/31 10:42:26;;;;;;;11.23;9.00;;;;;;;;;;5071228;28;20444;-51
2021/01/31 10:44:52;;;;;;;11.03;8.93;;;;;;;;;;5071727;28;20392;-51
2021/01/31 10:47:18;;;;;;;9.77;7.67;;;;;;;;;;5070464;28;20855;-53
2021/01/31 10:49:44;;;;;;;10.33;7.90;;;;;;;;;;5071101;28;20507;-51
2021/01/31 10:52:10;;;;;;;10.47;7.20;;;;;;;;;;5071249;28;20423;-53
2021/01/31 10:54:37;;;;;;;8.73;7.43;;;;;;;;;;5070830;28;20431;-51
2021/01/31 10:57:03;;;;;;;10.13;6.90;;;;;;;;;;5070936;28;20477;-54
2021/01/31 10:59:29;;;;;;;9.23;7.03;;;;;;;;;;5070911;28;20512;-53
2021/01/31 11:01:55;;;;;;;8.23;6.60;;;;;;;;;;5071122;28;20428;-51
2021/01/31 11:04:22;;;;;;;10.50;6.87;;;;;;;;;;5071012;28;20462;-51
2021/01/31 11:06:48;;;;;;;8.57;6.20;;;;;;;;;;5070817;28;20407;-54
2021/01/31 11:09:15;;;;;;;6.67;6.07;;;;;;;;;;5070915;28;20447;-53
2021/01/31 11:11:41;;;;;;;8.30;6.23;;;;;;;;;;5070666;28;20483;-52
2021/01/31 11:14:07;;;;;;;6.37;5.33;;;;;;;;;;5070922;28;20401;-53
2021/01/31 11:16:34;;;;;;;7.33;5.70;;;;;;;;;;5070625;28;20402;-53
2021/01/31 11:19:00;;;;;;;9.47;7.07;;;;;;;;;;5070847;28;20428;-54
2021/01/31 11:21:27;;;;;;;6.50;5.90;;;;;;;;;;5070669;28;20401;-51
2021/01/31 11:23:54;;;;;;;7.53;6.67;;;;;;;;;;5069961;28;20473;-51
2021/01/31 11:26:20;;;;;;;8.00;6.40;;;;;;;;;;5069396;28;20934;-51
2021/01/31 11:28:46;;;;;;;7.10;6.40;;;;;;;;;;5070283;28;20838;-54
2021/01/31 11:31:12;;;;;;;10.00;7.20;;;;;;;;;;5071026;28;20757;-51
2021/01/31 11:33:38;;;;;;;6.87;5.27;;;;;;;;;;5070108;28;20490;-52
2021/01/31 11:36:05;;;;;;;6.87;5.67;;;;;;;;;;5070587;28;20456;-54
2021/01/31 11:38:31;;;;;;;7.70;5.97;;;;;;;;;;5070303;28;20971;-55
2021/01/31 11:40:57;;;;;;;7.73;6.10;;;;;;;;;;5070625;28;20396;-53
2021/01/31 11:43:23;;;;;;;6.33;5.60;;;;;;;;;;5070628;28;20454;-55
2021/01/31 11:45:49;;;;;;;5.90;5.30;;;;;;;;;;5070409;28;20835;-52
2021/01/31 11:48:15;;;;;;;10.27;6.80;;;;;;;;;;5070490;28;20946;-52
2021/01/31 11:50:41;;;;;;;7.00;5.20;;;;;;;;;;5070429;28;20943;-52
2021/01/31 11:53:07;;;;;;;7.60;5.83;;;;;;;;;;5074250;28;20405;-54
2021/01/31 11:55:33;;;;;;;8.47;5.60;;;;;;;;;;5079940;28;20452;-52
2021/01/31 11:57:59;;;;;;;8.80;5.80;;;;;;;;;;5078903;28;20492;-50
2021/01/31 12:00:25;;;;;;;9.63;6.20;;;;;;;;;;5080375;28;20420;-52
2021/01/31 12:02:52;;;;;;;8.63;6.80;;;;;;;;;;5083424;28;20477;-50
2021/01/31 12:05:19;;;;;;;7.00;6.30;;;;;;;;;;5082806;28;20397;-51
2021/01/31 12:07:45;;;;;;;8.10;6.50;;;;;;;;;;5082542;28;20492;-52
2021/01/31 12:10:11;;;;;;;8.50;6.80;;;;;;;;;;5082076;28;20478;-52
2021/01/31 12:12:38;;;;;;;9.50;6.50;;;;;;;;;;5080405;28;20412;-51
2021/01/31 12:15:05;;;;;;;7.83;6.20;;;;;;;;;;5082104;28;20404;-51
2021/01/31 12:17:31;;;;;;;8.37;6.20;;;;;;;;;;5079326;28;20400;-51
2021/01/31 12:19:57;;;;;;;6.60;5.93;;;;;;;;;;5081744;28;20416;-52
2021/01/31 12:22:24;;;;;;;6.20;5.60;;;;;;;;;;5080627;28;20448;-51
2021/01/31 12:24:50;;;;;;;6.70;6.03;;;;;;;;;;5080658;28;20482;-51
2021/01/31 12:27:17;;;;;;;12.83;9.50;;;;;;;;;;5081328;28;20408;-51
2021/01/31 12:29:43;;;;;;;8.60;6.70;;;;;;;;;;5082481;28;20420;-52
2021/01/31 12:32:09;;;;;;;9.10;6.80;;;;;;;;;;5082053;28;20408;-52
2021/01/31 12:34:35;;;;;;;7.30;6.70;;;;;;;;;;5082666;28;20412;-52
2021/01/31 12:37:01;;;;;;;6.90;6.20;;;;;;;;;;5080645;28;20411;-51
2021/01/31 12:39:27;;;;;;;7.23;6.17;;;;;;;;;;5083135;28;20911;-51
2021/01/31 12:41:53;;;;;;;6.70;6.00;;;;;;;;;;5082973;28;20420;-50
2021/01/31 12:44:19;;;;;;;7.37;6.60;;;;;;;;;;5081225;28;20466;-51
2021/01/31 12:46:45;;;;;;;7.77;6.90;;;;;;;;;;5081575;28;20403;-52
2021/01/31 12:49:11;;;;;;;6.77;6.07;;;;;;;;;;5081993;28;20914;-52
2021/01/31 12:51:37;;;;;;;8.00;5.90;;;;;;;;;;5083216;28;20394;-51
2021/01/31 12:54:03;;;;;;;7.10;6.40;;;;;;;;;;5082333;28;20456;-51
2021/01/31 12:56:29;;;;;;;7.00;5.87;;;;;;;;;;5082104;28;20430;-51
2021/01/31 12:58:55;;;;;;;7.37;6.10;;;;;;;;;;5082599;28;20488;-51
2021/01/31 13:01:21;;;;;;;8.03;6.60;;;;;;;;;;5081545;28;20968;-51
2021/01/31 13:03:47;;;;;;;7.10;6.20;;;;;;;;;;5082301;28;20487;-51
2021/01/31 13:06:13;;;;;;;8.20;6.63;;;;;;;;;;5081298;28;20400;-51
2021/01/31 13:08:39;;;;;;;7.60;6.50;;;;;;;;;;5085955;28;20882;-50
2021/01/31 13:11:05;;;;;;;6.50;5.87;;;;;;;;;;5102855;28;20402;-51
2021/01/31 13:13:31;;;;;;;7.87;6.83;;;;;;;;;;5105986;28;20411;-49
2021/01/31 13:15:57;;;;;;;6.50;5.83;;;;;;;;;;5107140;28;20767;-53
2021/01/31 13:18:23;;;;;;;8.23;6.90;;;;;;;;;;5107015;28;20769;-52
2021/01/31 13:20:49;;;;;;;7.23;6.23;;;;;;;;;;5107180;28;20426;-52
2021/01/31 13:23:15;;;;;;;7.53;6.33;;;;;;;;;;5105632;28;20458;-52
2021/01/31 13:25:41;;;;;;;8.00;6.77;;;;;;;;;;5101862;28;20427;-51
2021/01/31 13:28:07;;;;;;;8.27;7.47;;;;;;;;;;5083722;28;20952;-52
2021/01/31 13:30:33;;;;;;;8.13;6.87;;;;;;;;;;5083247;28;20417;-54
2021/01/31 13:32:59;;;;;;;9.00;7.00;;;;;;;;;;5083415;28;20810;-53
2021/01/31 13:35:26;;;;;;;9.90;7.40;;;;;;;;;;5077167;28;20415;-50
2021/01/31 13:37:52;;;;;;;11.83;7.20;;;;;;;;;;5072531;28;20407;-50
2021/01/31 13:40:18;;;;;;;9.60;6.93;;;;;;;;;;5072568;28;20518;-50
2021/01/31 13:42:44;;;;;;;8.00;6.83;;;;;;;;;;5072472;28;20858;-50
2021/01/31 13:45:12;;;;;;;7.83;7.03;;;;;;;;;;5072668;28;20396;-50
2021/01/31 13:47:38;;;;;;;9.90;7.27;;;;;;;;;;5072397;28;20947;-50
2021/01/31 13:50:05;;;;;;;9.93;6.90;;;;;;;;;;5070949;28;20416;-50
2021/01/31 13:52:31;;;;;;;11.13;7.20;;;;;;;;;;5071121;28;20424;-50
2021/01/31 13:54:57;;;;;;;8.90;7.80;;;;;;;;;;5072313;28;20404;-50
2021/01/31 13:57:24;;;;;;;8.87;6.80;;;;;;;;;;5071993;28;20951;-50
2021/01/31 13:59:50;;;;;;;13.20;7.20;;;;;;;;;;5072414;28;20434;-54
2021/01/31 14:02:16;;;;;;;10.17;7.23;;;;;;;;;;5072097;28;20451;-54
2021/01/31 14:04:43;;;;;;;11.07;7.80;;;;;;;;;;5072070;28;20403;-54
2021/01/31 14:07:09;;;;;;;13.30;7.00;;;;;;;;;;5071859;28;20411;-50
2021/01/31 14:09:35;;;;;;;10.87;8.03;;;;;;;;;;5072374;28;20460;-50
2021/01/31 14:12:01;;;;;;;9.10;7.87;;;;;;;;;;5072158;28;20439;-50
2021/01/31 14:14:27;;;;;;;11.77;7.57;;;;;;;;;;5072443;28;20451;-50
2021/01/31 14:16:53;;;;;;;12.93;8.00;;;;;;;;;;5071850;28;20417;-50
2021/01/31 14:19:19;;;;;;;11.10;8.23;;;;;;;;;;5072051;28;20790;-50
2021/01/31 14:21:46;;;;;;;10.20;7.00;;;;;;;;;;5071809;28;20407;-50
2021/01/31 14:24:12;;;;;;;8.37;7.47;;;;;;;;;;5071152;28;20402;-50
2021/01/31 14:26:39;;;;;;;9.70;8.30;;;;;;;;;;5085206;28;20991;-50
2021/01/31 14:29:05;;;;;;;10.77;8.00;;;;;;;;;;5091868;28;20944;-55
2021/01/31 14:31:31;;;;;;;11.40;8.67;;;;;;;;;;5091938;28;20403;-53
2021/01/31 14:33:57;;;;;;;11.53;8.53;;;;;;;;;;5091897;28;20406;-54
2021/01/31 14:36:24;;;;;;;12.17;8.60;;;;;;;;;;5091491;28;20459;-53
2021/01/31 14:38:50;;;;;;;13.43;8.60;;;;;;;;;;5091686;28;20406;-51
2021/01/31 14:41:16;;;;;;;12.97;8.93;;;;;;;;;;5091561;28;20488;-53